메인 페이지
METAR-TAF:

METAR-TAF

공항 :

사카테카스 주, 멕시코

위도: 22-54N, 경도: 102-41W, 고도: 2140m

현재 날씨관측

예보는 46분 전, 00:40시(UTC)에 발표되었습니다.
13kt
온도 29°C
습도 25%
기압 1021 hPa
시정: 12.9km
고도 5000ft 상공 구름 보통

METAR: MMZC 150040Z E01013KT 8SM SCT050 29/07 A3014 RMK 8/100 HZY

시각: 20:26 (01:26 UTC)

예보

예보는 2 시간 28분 전, 22:58시(UTC)에 발표되었습니다.
예보 대상 시간: 15일 00시부터 16일 00시까지 (UTC)
10kt
시정: 10km
고도 5000ft 상공 구름 보통
전환 중
15일 03시부터 15일 04시까지 (UTC)
5kt
15일 1900시부터 (UTC)
동북동10kt
시정: 10km
고도 4000ft 상공 구름 보통

TAF: MMZC 142258Z 1500/1600 01010KT P6SM SCT050 TX28/1520Z TN17/1512Z BECMG 1503/1504 08005KT FM151900 07010KT P6SM SCT040

4,000개 이상의 공항 관측 자료 및 예보 (METAR 및 TAF 보고).

지도상에서 검색 가능한 기상관측소가 노란 점과 빨간 점으로 표시되어 있습니다.

기상관측소 명을 보려면 표시 위로 마우스를 이동하세요.

날씨 관측과 예보를 보려면 클릭하세요.

지도 변경 : 확대하려면 엑스 표시가 있는 녹색 버튼, 축소하려면 빼기 표시가 있는 녹색 버튼, 다음 페이지의 지도를 보려면 녹색 화살표를 클릭하세요.


METAR-TAF: